Terminal Aerodrome Forecast
Issued by NWS

Home | Current Version | Previous Version | Text Only | Print | Product List | Glossary On
Versions: 1 2 3 4 5 6 7 8 9 10 11 12
241
FTUS45 KTFX 221720
TAFHLN
TAF
KHLN 221720Z 2218/2318 VRB05KT P6SM SCT060
     FM222000 11007KT P6SM SCT060 BKN120
      TEMPO 2222/2301 -TSRA BKN060CB
     FM230200 VRB04KT P6SM SCT080 BKN120
     FM230900 VRB04KT P6SM BKN090 PROB30 2314/2318 -SHRA BKN060=

USA.gov is the U.S. government's official web portal to all federal, state and local government web resources and services.